Paden, Mississippi
Current Conditions -  °F | °C
As of 4:15 PM on Sunday 25 Jan 2015 (Local Time) from KCRX Reporting Station
Overcast Overcast  
Wind Chill: 13°   Ceiling: 8000
Heat Index: 13°   Visibility: 10mi
Dew Point:   Wind: 8mph
Humidity: 54%   Direction: 260°W
Pressure: 29.7"   Gusts: 16mph
Location:  34.6475°N, 88.2106°W
Report Text: KCRX 252215Z AUTO 26007G14KT 10SM SCT045 BKN080 OVC090 13/04 A2970 RMK AO2
Loading
Personal Weather Stations






























Interactive Weather Map New forecast layout! Learn more

10-Day Weather Forecast

Advertisements
Track Severe Weather on mobile